sensor_id;sensor_type;location;lat;lon;timestamp;temperature;humidity
27544;DHT22;17996;51.056;3.656;2023-06-04T00:00:07;18.60;99.90
27544;DHT22;17996;51.056;3.656;2023-06-04T00:02:33;18.60;99.90
27544;DHT22;17996;51.056;3.656;2023-06-04T00:04:59;18.60;99.90
27544;DHT22;17996;51.056;3.656;2023-06-04T00:07:25;18.60;99.90
27544;DHT22;17996;51.056;3.656;2023-06-04T00:09:52;18.50;99.90
27544;DHT22;17996;51.056;3.656;2023-06-04T00:12:18;18.50;99.90
27544;DHT22;17996;51.056;3.656;2023-06-04T00:14:44;18.50;99.90
27544;DHT22;17996;51.056;3.656;2023-06-04T00:17:10;18.40;99.90
27544;DHT22;17996;51.056;3.656;2023-06-04T00:19:38;18.40;99.90
27544;DHT22;17996;51.056;3.656;2023-06-04T00:22:04;18.40;99.90
27544;DHT22;17996;51.056;3.656;2023-06-04T00:24:31;18.30;99.90
27544;DHT22;17996;51.056;3.656;2023-06-04T00:26:57;18.30;99.90
27544;DHT22;17996;51.056;3.656;2023-06-04T00:29:23;18.30;99.90
27544;DHT22;17996;51.056;3.656;2023-06-04T00:31:49;18.20;99.90
27544;DHT22;17996;51.056;3.656;2023-06-04T00:34:16;18.20;99.90
27544;DHT22;17996;51.056;3.656;2023-06-04T00:36:42;18.10;99.90
27544;DHT22;17996;51.056;3.656;2023-06-04T00:39:08;18.10;99.90
27544;DHT22;17996;51.056;3.656;2023-06-04T00:41:33;18.10;99.90
27544;DHT22;17996;51.056;3.656;2023-06-04T00:43:59;18.10;99.90
27544;DHT22;17996;51.056;3.656;2023-06-04T00:46:27;18.10;99.90
27544;DHT22;17996;51.056;3.656;2023-06-04T00:48:54;18.10;99.90
27544;DHT22;17996;51.056;3.656;2023-06-04T00:51:21;18.00;99.90
27544;DHT22;17996;51.056;3.656;2023-06-04T00:53:49;18.00;99.90
27544;DHT22;17996;51.056;3.656;2023-06-04T00:56:15;18.00;99.90
27544;DHT22;17996;51.056;3.656;2023-06-04T00:58:41;18.00;99.90
27544;DHT22;17996;51.056;3.656;2023-06-04T01:01:26;18.00;99.90
27544;DHT22;17996;51.056;3.656;2023-06-04T01:03:55;17.90;99.90
27544;DHT22;17996;51.056;3.656;2023-06-04T01:06:31;17.90;99.90
27544;DHT22;17996;51.056;3.656;2023-06-04T01:08:58;17.90;99.90
27544;DHT22;17996;51.056;3.656;2023-06-04T01:11:36;17.80;99.90
27544;DHT22;17996;51.056;3.656;2023-06-04T01:14:04;17.90;99.90
27544;DHT22;17996;51.056;3.656;2023-06-04T01:16:45;17.80;99.90
27544;DHT22;17996;51.056;3.656;2023-06-04T01:22:02;17.80;99.90
27544;DHT22;17996;51.056;3.656;2023-06-04T01:24:32;17.80;99.90
27544;DHT22;17996;51.056;3.656;2023-06-04T01:26:59;17.80;99.90
27544;DHT22;17996;51.056;3.656;2023-06-04T01:29:26;17.70;99.90
27544;DHT22;17996;51.056;3.656;2023-06-04T01:31:55;17.80;99.90
27544;DHT22;17996;51.056;3.656;2023-06-04T01:34:22;17.70;99.90
27544;DHT22;17996;51.056;3.656;2023-06-04T01:36:48;17.70;99.90
27544;DHT22;17996;51.056;3.656;2023-06-04T01:39:13;17.70;99.90
27544;DHT22;17996;51.056;3.656;2023-06-04T01:41:39;17.60;99.90
27544;DHT22;17996;51.056;3.656;2023-06-04T01:44:04;17.60;99.90
27544;DHT22;17996;51.056;3.656;2023-06-04T01:46:30;17.60;99.90
27544;DHT22;17996;51.056;3.656;2023-06-04T01:48:56;17.60;99.90
27544;DHT22;17996;51.056;3.656;2023-06-04T01:51:22;17.60;99.90
27544;DHT22;17996;51.056;3.656;2023-06-04T01:53:47;17.50;99.90
27544;DHT22;17996;51.056;3.656;2023-06-04T01:56:13;17.50;99.90
27544;DHT22;17996;51.056;3.656;2023-06-04T01:58:39;17.50;99.90
27544;DHT22;17996;51.056;3.656;2023-06-04T02:01:05;17.50;99.90
27544;DHT22;17996;51.056;3.656;2023-06-04T02:03:32;17.40;99.90
27544;DHT22;17996;51.056;3.656;2023-06-04T02:06:05;17.40;99.90
27544;DHT22;17996;51.056;3.656;2023-06-04T02:08:34;17.30;99.90
27544;DHT22;17996;51.056;3.656;2023-06-04T02:11:00;17.30;99.90
27544;DHT22;17996;51.056;3.656;2023-06-04T02:13:26;17.30;99.90
27544;DHT22;17996;51.056;3.656;2023-06-04T02:15:52;17.30;99.90
27544;DHT22;17996;51.056;3.656;2023-06-04T02:18:19;17.30;99.90
27544;DHT22;17996;51.056;3.656;2023-06-04T02:20:48;17.30;99.90
27544;DHT22;17996;51.056;3.656;2023-06-04T02:23:16;17.30;99.90
27544;DHT22;17996;51.056;3.656;2023-06-04T02:25:43;17.30;99.90
27544;DHT22;17996;51.056;3.656;2023-06-04T02:28:12;17.20;99.90
27544;DHT22;17996;51.056;3.656;2023-06-04T02:30:38;17.20;99.90
27544;DHT22;17996;51.056;3.656;2023-06-04T02:33:03;17.20;99.90
27544;DHT22;17996;51.056;3.656;2023-06-04T02:35:30;17.10;99.90
27544;DHT22;17996;51.056;3.656;2023-06-04T02:37:56;17.10;99.90
27544;DHT22;17996;51.056;3.656;2023-06-04T02:40:25;17.10;99.90
27544;DHT22;17996;51.056;3.656;2023-06-04T02:42:53;17.10;99.90
27544;DHT22;17996;51.056;3.656;2023-06-04T02:45:18;17.10;99.90
27544;DHT22;17996;51.056;3.656;2023-06-04T02:47:44;17.10;99.90
27544;DHT22;17996;51.056;3.656;2023-06-04T02:50:11;17.00;99.90
27544;DHT22;17996;51.056;3.656;2023-06-04T02:52:37;17.00;99.90
27544;DHT22;17996;51.056;3.656;2023-06-04T02:55:04;17.00;99.90
27544;DHT22;17996;51.056;3.656;2023-06-04T02:57:30;17.00;99.90
27544;DHT22;17996;51.056;3.656;2023-06-04T02:59:56;16.90;99.90
27544;DHT22;17996;51.056;3.656;2023-06-04T03:02:22;16.90;99.90
27544;DHT22;17996;51.056;3.656;2023-06-04T03:04:47;16.90;99.90
27544;DHT22;17996;51.056;3.656;2023-06-04T03:07:16;16.90;99.90
27544;DHT22;17996;51.056;3.656;2023-06-04T03:09:46;16.90;99.90
27544;DHT22;17996;51.056;3.656;2023-06-04T03:12:12;16.90;99.90
27544;DHT22;17996;51.056;3.656;2023-06-04T03:14:38;16.90;99.90
27544;DHT22;17996;51.056;3.656;2023-06-04T03:17:04;16.90;99.90
27544;DHT22;17996;51.056;3.656;2023-06-04T03:19:40;16.80;99.90
27544;DHT22;17996;51.056;3.656;2023-06-04T03:22:07;16.80;99.90
27544;DHT22;17996;51.056;3.656;2023-06-04T03:24:38;16.80;99.90
27544;DHT22;17996;51.056;3.656;2023-06-04T03:27:05;16.80;99.90
27544;DHT22;17996;51.056;3.656;2023-06-04T03:29:32;16.70;99.90
27544;DHT22;17996;51.056;3.656;2023-06-04T03:31:59;16.70;99.90
27544;DHT22;17996;51.056;3.656;2023-06-04T03:34:25;16.60;99.90
27544;DHT22;17996;51.056;3.656;2023-06-04T03:36:52;16.60;99.90
27544;DHT22;17996;51.056;3.656;2023-06-04T03:39:18;16.60;99.90
27544;DHT22;17996;51.056;3.656;2023-06-04T03:41:43;16.60;99.90
27544;DHT22;17996;51.056;3.656;2023-06-04T03:44:09;16.50;99.90
27544;DHT22;17996;51.056;3.656;2023-06-04T03:46:35;16.50;99.90
27544;DHT22;17996;51.056;3.656;2023-06-04T03:49:02;16.50;99.90
27544;DHT22;17996;51.056;3.656;2023-06-04T03:51:27;16.50;99.90
27544;DHT22;17996;51.056;3.656;2023-06-04T03:53:53;16.50;99.90
27544;DHT22;17996;51.056;3.656;2023-06-04T03:56:19;16.50;99.90
27544;DHT22;17996;51.056;3.656;2023-06-04T03:58:45;16.50;99.90
27544;DHT22;17996;51.056;3.656;2023-06-04T04:01:11;16.50;99.90
27544;DHT22;17996;51.056;3.656;2023-06-04T04:03:36;16.50;99.90
27544;DHT22;17996;51.056;3.656;2023-06-04T04:06:02;16.50;99.90
27544;DHT22;17996;51.056;3.656;2023-06-04T04:08:28;16.40;99.90
27544;DHT22;17996;51.056;3.656;2023-06-04T04:11:00;16.40;99.90
27544;DHT22;17996;51.056;3.656;2023-06-04T04:13:26;16.40;99.90
27544;DHT22;17996;51.056;3.656;2023-06-04T04:15:52;16.40;99.90
27544;DHT22;17996;51.056;3.656;2023-06-04T04:18:21;16.40;99.90
27544;DHT22;17996;51.056;3.656;2023-06-04T04:20:47;16.40;99.90
27544;DHT22;17996;51.056;3.656;2023-06-04T04:23:13;16.40;99.90
27544;DHT22;17996;51.056;3.656;2023-06-04T04:25:39;16.30;99.90
27544;DHT22;17996;51.056;3.656;2023-06-04T04:28:05;16.30;99.90
27544;DHT22;17996;51.056;3.656;2023-06-04T04:30:34;16.30;99.90
27544;DHT22;17996;51.056;3.656;2023-06-04T04:33:01;16.40;99.90
27544;DHT22;17996;51.056;3.656;2023-06-04T04:35:27;16.30;99.90
27544;DHT22;17996;51.056;3.656;2023-06-04T04:37:54;16.30;99.90
27544;DHT22;17996;51.056;3.656;2023-06-04T04:40:20;16.40;99.90
27544;DHT22;17996;51.056;3.656;2023-06-04T04:42:46;16.40;99.90
27544;DHT22;17996;51.056;3.656;2023-06-04T04:45:12;16.40;99.90
27544;DHT22;17996;51.056;3.656;2023-06-04T04:47:38;16.40;99.90
27544;DHT22;17996;51.056;3.656;2023-06-04T04:50:04;16.40;99.90
27544;DHT22;17996;51.056;3.656;2023-06-04T04:52:30;16.40;99.90
27544;DHT22;17996;51.056;3.656;2023-06-04T04:54:56;16.40;99.90
27544;DHT22;17996;51.056;3.656;2023-06-04T04:57:23;16.40;99.90
27544;DHT22;17996;51.056;3.656;2023-06-04T04:59:49;16.40;99.90
27544;DHT22;17996;51.056;3.656;2023-06-04T05:02:15;16.40;99.90
27544;DHT22;17996;51.056;3.656;2023-06-04T05:04:41;16.50;99.90
27544;DHT22;17996;51.056;3.656;2023-06-04T05:07:07;16.50;99.90
27544;DHT22;17996;51.056;3.656;2023-06-04T05:09:32;16.50;99.90
27544;DHT22;17996;51.056;3.656;2023-06-04T05:11:58;16.50;99.90
27544;DHT22;17996;51.056;3.656;2023-06-04T05:14:24;16.50;99.90
27544;DHT22;17996;51.056;3.656;2023-06-04T05:16:50;16.50;99.90
27544;DHT22;17996;51.056;3.656;2023-06-04T05:19:18;16.50;99.90
27544;DHT22;17996;51.056;3.656;2023-06-04T05:21:44;16.60;99.90
27544;DHT22;17996;51.056;3.656;2023-06-04T05:24:10;16.60;99.90
27544;DHT22;17996;51.056;3.656;2023-06-04T05:26:36;16.60;99.90
27544;DHT22;17996;51.056;3.656;2023-06-04T05:29:02;16.60;99.90
27544;DHT22;17996;51.056;3.656;2023-06-04T05:31:29;16.60;99.90
27544;DHT22;17996;51.056;3.656;2023-06-04T05:34:02;16.60;99.90
27544;DHT22;17996;51.056;3.656;2023-06-04T05:36:30;16.60;99.90
27544;DHT22;17996;51.056;3.656;2023-06-04T05:38:56;16.60;99.90
27544;DHT22;17996;51.056;3.656;2023-06-04T05:41:28;16.60;99.90
27544;DHT22;17996;51.056;3.656;2023-06-04T05:43:53;16.70;99.90
27544;DHT22;17996;51.056;3.656;2023-06-04T05:46:19;16.70;99.90
27544;DHT22;17996;51.056;3.656;2023-06-04T05:48:45;16.70;99.90
27544;DHT22;17996;51.056;3.656;2023-06-04T05:51:13;16.70;99.90
27544;DHT22;17996;51.056;3.656;2023-06-04T05:53:39;16.80;99.90
27544;DHT22;17996;51.056;3.656;2023-06-04T05:56:04;16.80;99.90
27544;DHT22;17996;51.056;3.656;2023-06-04T05:58:32;16.80;99.90
27544;DHT22;17996;51.056;3.656;2023-06-04T06:00:57;16.80;99.90
27544;DHT22;17996;51.056;3.656;2023-06-04T06:03:23;16.80;99.90
27544;DHT22;17996;51.056;3.656;2023-06-04T06:05:49;16.80;99.90
27544;DHT22;17996;51.056;3.656;2023-06-04T06:08:14;16.80;99.90
27544;DHT22;17996;51.056;3.656;2023-06-04T06:10:40;16.80;99.90
27544;DHT22;17996;51.056;3.656;2023-06-04T06:13:06;16.80;99.90
27544;DHT22;17996;51.056;3.656;2023-06-04T06:15:31;16.80;99.90
27544;DHT22;17996;51.056;3.656;2023-06-04T06:17:58;16.80;99.90
27544;DHT22;17996;51.056;3.656;2023-06-04T06:20:24;16.80;99.90
27544;DHT22;17996;51.056;3.656;2023-06-04T06:22:49;16.90;99.90
27544;DHT22;17996;51.056;3.656;2023-06-04T06:25:15;16.90;99.90
27544;DHT22;17996;51.056;3.656;2023-06-04T06:27:41;16.90;99.90
27544;DHT22;17996;51.056;3.656;2023-06-04T06:30:08;16.90;99.90
27544;DHT22;17996;51.056;3.656;2023-06-04T06:32:34;16.90;99.90
27544;DHT22;17996;51.056;3.656;2023-06-04T06:35:01;17.00;99.90
27544;DHT22;17996;51.056;3.656;2023-06-04T06:37:26;17.00;99.90
27544;DHT22;17996;51.056;3.656;2023-06-04T06:39:52;17.00;99.90
27544;DHT22;17996;51.056;3.656;2023-06-04T06:42:18;17.00;99.90
27544;DHT22;17996;51.056;3.656;2023-06-04T06:44:44;17.10;99.90
27544;DHT22;17996;51.056;3.656;2023-06-04T06:47:10;17.10;99.90
27544;DHT22;17996;51.056;3.656;2023-06-04T06:49:39;17.10;99.90
27544;DHT22;17996;51.056;3.656;2023-06-04T06:52:05;17.10;99.90
27544;DHT22;17996;51.056;3.656;2023-06-04T06:54:31;17.10;99.90
27544;DHT22;17996;51.056;3.656;2023-06-04T06:56:57;17.10;99.90
27544;DHT22;17996;51.056;3.656;2023-06-04T06:59:23;17.10;99.90
27544;DHT22;17996;51.056;3.656;2023-06-04T07:01:49;17.20;99.90
27544;DHT22;17996;51.056;3.656;2023-06-04T07:04:15;17.20;99.90
27544;DHT22;17996;51.056;3.656;2023-06-04T07:06:41;17.20;99.90
27544;DHT22;17996;51.056;3.656;2023-06-04T07:09:07;17.20;99.90
27544;DHT22;17996;51.056;3.656;2023-06-04T07:11:33;17.20;99.90
27544;DHT22;17996;51.056;3.656;2023-06-04T07:14:00;17.30;99.90
27544;DHT22;17996;51.056;3.656;2023-06-04T07:16:28;17.30;99.90
27544;DHT22;17996;51.056;3.656;2023-06-04T07:18:53;17.30;99.90
27544;DHT22;17996;51.056;3.656;2023-06-04T07:21:19;17.40;99.90
27544;DHT22;17996;51.056;3.656;2023-06-04T07:23:47;17.40;99.90
27544;DHT22;17996;51.056;3.656;2023-06-04T07:26:15;17.40;99.90
27544;DHT22;17996;51.056;3.656;2023-06-04T07:28:41;17.40;99.90
27544;DHT22;17996;51.056;3.656;2023-06-04T07:31:07;17.40;99.90
27544;DHT22;17996;51.056;3.656;2023-06-04T07:33:33;17.40;99.90
27544;DHT22;17996;51.056;3.656;2023-06-04T07:35:59;17.40;99.90
27544;DHT22;17996;51.056;3.656;2023-06-04T07:38:25;17.50;99.90
27544;DHT22;17996;51.056;3.656;2023-06-04T07:40:51;17.50;99.90
27544;DHT22;17996;51.056;3.656;2023-06-04T07:43:17;17.50;99.90
27544;DHT22;17996;51.056;3.656;2023-06-04T07:45:42;17.60;99.90
27544;DHT22;17996;51.056;3.656;2023-06-04T07:48:11;17.60;99.90
27544;DHT22;17996;51.056;3.656;2023-06-04T07:50:37;17.60;99.90
27544;DHT22;17996;51.056;3.656;2023-06-04T07:53:02;17.70;99.90
27544;DHT22;17996;51.056;3.656;2023-06-04T07:55:28;17.70;99.90
27544;DHT22;17996;51.056;3.656;2023-06-04T07:57:54;17.80;99.90
27544;DHT22;17996;51.056;3.656;2023-06-04T08:00:20;17.80;99.90
27544;DHT22;17996;51.056;3.656;2023-06-04T08:02:45;17.80;99.90
27544;DHT22;17996;51.056;3.656;2023-06-04T08:05:11;17.80;99.90
27544;DHT22;17996;51.056;3.656;2023-06-04T08:07:39;17.90;99.90
27544;DHT22;17996;51.056;3.656;2023-06-04T08:10:06;17.90;99.90
27544;DHT22;17996;51.056;3.656;2023-06-04T08:12:32;17.90;99.90
27544;DHT22;17996;51.056;3.656;2023-06-04T08:14:57;18.00;99.90
27544;DHT22;17996;51.056;3.656;2023-06-04T08:17:23;18.00;99.90
27544;DHT22;17996;51.056;3.656;2023-06-04T08:19:49;18.10;99.90
27544;DHT22;17996;51.056;3.656;2023-06-04T08:22:15;18.10;99.90
27544;DHT22;17996;51.056;3.656;2023-06-04T08:24:41;18.20;99.90
27544;DHT22;17996;51.056;3.656;2023-06-04T08:27:07;18.20;99.90
27544;DHT22;17996;51.056;3.656;2023-06-04T08:29:34;18.30;99.90
27544;DHT22;17996;51.056;3.656;2023-06-04T08:32:01;18.30;99.90
27544;DHT22;17996;51.056;3.656;2023-06-04T08:34:28;18.40;99.90
27544;DHT22;17996;51.056;3.656;2023-06-04T08:36:53;18.40;99.90
27544;DHT22;17996;51.056;3.656;2023-06-04T08:39:19;18.40;99.90
27544;DHT22;17996;51.056;3.656;2023-06-04T08:41:48;18.50;99.90
27544;DHT22;17996;51.056;3.656;2023-06-04T08:44:16;18.50;99.90
27544;DHT22;17996;51.056;3.656;2023-06-04T08:46:43;18.50;99.90
27544;DHT22;17996;51.056;3.656;2023-06-04T08:49:14;18.60;99.90
27544;DHT22;17996;51.056;3.656;2023-06-04T08:51:41;18.60;99.90
27544;DHT22;17996;51.056;3.656;2023-06-04T08:54:09;18.70;99.90
27544;DHT22;17996;51.056;3.656;2023-06-04T08:56:36;18.70;99.90
27544;DHT22;17996;51.056;3.656;2023-06-04T08:59:04;18.70;99.90
27544;DHT22;17996;51.056;3.656;2023-06-04T09:01:32;18.80;99.90
27544;DHT22;17996;51.056;3.656;2023-06-04T09:04:03;18.80;99.90
27544;DHT22;17996;51.056;3.656;2023-06-04T09:06:30;18.80;99.90
27544;DHT22;17996;51.056;3.656;2023-06-04T09:08:58;18.90;99.90
27544;DHT22;17996;51.056;3.656;2023-06-04T09:11:33;18.90;99.90
27544;DHT22;17996;51.056;3.656;2023-06-04T09:14:03;18.90;99.90
27544;DHT22;17996;51.056;3.656;2023-06-04T09:16:30;19.00;99.90
27544;DHT22;17996;51.056;3.656;2023-06-04T09:19:02;19.10;99.90
27544;DHT22;17996;51.056;3.656;2023-06-04T09:21:29;19.10;99.90
27544;DHT22;17996;51.056;3.656;2023-06-04T09:23:57;19.10;99.90
27544;DHT22;17996;51.056;3.656;2023-06-04T09:26:23;19.10;99.90
27544;DHT22;17996;51.056;3.656;2023-06-04T09:28:50;19.20;99.90
27544;DHT22;17996;51.056;3.656;2023-06-04T09:31:18;19.20;99.90
27544;DHT22;17996;51.056;3.656;2023-06-04T09:33:50;19.30;99.90
27544;DHT22;17996;51.056;3.656;2023-06-04T09:36:16;19.30;99.90
27544;DHT22;17996;51.056;3.656;2023-06-04T09:38:42;19.30;99.90
27544;DHT22;17996;51.056;3.656;2023-06-04T09:41:26;19.40;99.90
27544;DHT22;17996;51.056;3.656;2023-06-04T09:44:02;19.40;99.90
27544;DHT22;17996;51.056;3.656;2023-06-04T09:46:28;19.40;99.90
27544;DHT22;17996;51.056;3.656;2023-06-04T09:49:02;19.40;99.90
27544;DHT22;17996;51.056;3.656;2023-06-04T09:51:29;19.40;99.90
27544;DHT22;17996;51.056;3.656;2023-06-04T09:53:59;19.50;99.90
27544;DHT22;17996;51.056;3.656;2023-06-04T09:56:26;19.50;99.90
27544;DHT22;17996;51.056;3.656;2023-06-04T09:58:59;19.60;99.90
27544;DHT22;17996;51.056;3.656;2023-06-04T10:01:29;19.60;99.90
27544;DHT22;17996;51.056;3.656;2023-06-04T10:03:58;19.60;99.90
27544;DHT22;17996;51.056;3.656;2023-06-04T10:06:26;19.70;99.90
27544;DHT22;17996;51.056;3.656;2023-06-04T10:08:55;19.70;99.90
27544;DHT22;17996;51.056;3.656;2023-06-04T10:11:26;19.70;99.90
27544;DHT22;17996;51.056;3.656;2023-06-04T10:14:01;19.80;99.90
27544;DHT22;17996;51.056;3.656;2023-06-04T10:16:30;19.80;99.90
27544;DHT22;17996;51.056;3.656;2023-06-04T10:18:58;19.80;99.80
27544;DHT22;17996;51.056;3.656;2023-06-04T10:21:26;19.80;99.90
27544;DHT22;17996;51.056;3.656;2023-06-04T10:23:52;19.90;99.90
27544;DHT22;17996;51.056;3.656;2023-06-04T10:26:18;20.00;99.90
27544;DHT22;17996;51.056;3.656;2023-06-04T10:28:44;20.00;99.90
27544;DHT22;17996;51.056;3.656;2023-06-04T10:31:10;20.00;99.90
27544;DHT22;17996;51.056;3.656;2023-06-04T10:33:36;20.10;99.90
27544;DHT22;17996;51.056;3.656;2023-06-04T10:36:19;20.10;99.90
27544;DHT22;17996;51.056;3.656;2023-06-04T10:38:46;20.10;99.90
27544;DHT22;17996;51.056;3.656;2023-06-04T10:41:16;20.20;99.90
27544;DHT22;17996;51.056;3.656;2023-06-04T10:43:47;20.20;99.90
27544;DHT22;17996;51.056;3.656;2023-06-04T10:46:18;20.20;99.70
27544;DHT22;17996;51.056;3.656;2023-06-04T10:48:49;20.30;99.50
27544;DHT22;17996;51.056;3.656;2023-06-04T10:51:15;20.30;99.40
27544;DHT22;17996;51.056;3.656;2023-06-04T10:53:41;20.30;99.00
27544;DHT22;17996;51.056;3.656;2023-06-04T10:56:07;20.30;99.80
27544;DHT22;17996;51.056;3.656;2023-06-04T10:58:33;20.40;99.90
27544;DHT22;17996;51.056;3.656;2023-06-04T11:00:59;20.40;99.90
27544;DHT22;17996;51.056;3.656;2023-06-04T11:03:35;20.40;99.90
27544;DHT22;17996;51.056;3.656;2023-06-04T11:06:15;20.40;99.90
27544;DHT22;17996;51.056;3.656;2023-06-04T11:08:42;20.50;99.10
27544;DHT22;17996;51.056;3.656;2023-06-04T11:11:13;20.40;99.20
27544;DHT22;17996;51.056;3.656;2023-06-04T11:13:39;20.50;99.40
27544;DHT22;17996;51.056;3.656;2023-06-04T11:16:16;20.50;99.70
27544;DHT22;17996;51.056;3.656;2023-06-04T11:18:42;20.50;98.60
27544;DHT22;17996;51.056;3.656;2023-06-04T11:21:08;20.50;98.70
27544;DHT22;17996;51.056;3.656;2023-06-04T11:23:34;20.60;98.50
27544;DHT22;17996;51.056;3.656;2023-06-04T11:26:00;20.60;98.00
27544;DHT22;17996;51.056;3.656;2023-06-04T11:28:27;20.60;98.40
27544;DHT22;17996;51.056;3.656;2023-06-04T11:31:00;20.70;99.00
27544;DHT22;17996;51.056;3.656;2023-06-04T11:33:49;20.70;98.90
27544;DHT22;17996;51.056;3.656;2023-06-04T11:36:27;20.80;98.50
27544;DHT22;17996;51.056;3.656;2023-06-04T11:38:58;20.80;98.40
27544;DHT22;17996;51.056;3.656;2023-06-04T11:41:29;20.80;98.60
27544;DHT22;17996;51.056;3.656;2023-06-04T11:43:55;20.80;98.10
27544;DHT22;17996;51.056;3.656;2023-06-04T11:46:22;20.90;97.50
27544;DHT22;17996;51.056;3.656;2023-06-04T11:48:50;20.90;97.30
27544;DHT22;17996;51.056;3.656;2023-06-04T11:51:16;21.00;98.70
27544;DHT22;17996;51.056;3.656;2023-06-04T11:53:42;21.10;98.20
27544;DHT22;17996;51.056;3.656;2023-06-04T11:56:08;21.20;98.50
27544;DHT22;17996;51.056;3.656;2023-06-04T11:58:34;21.10;97.60
27544;DHT22;17996;51.056;3.656;2023-06-04T12:01:01;21.20;97.90
27544;DHT22;17996;51.056;3.656;2023-06-04T12:03:36;21.20;97.60
27544;DHT22;17996;51.056;3.656;2023-06-04T12:06:17;21.30;96.80
27544;DHT22;17996;51.056;3.656;2023-06-04T12:08:49;21.30;96.80
27544;DHT22;17996;51.056;3.656;2023-06-04T12:11:30;21.20;95.90
27544;DHT22;17996;51.056;3.656;2023-06-04T12:14:04;21.30;96.30
27544;DHT22;17996;51.056;3.656;2023-06-04T12:16:31;21.30;96.00
27544;DHT22;17996;51.056;3.656;2023-06-04T12:19:06;21.20;95.90
27544;DHT22;17996;51.056;3.656;2023-06-04T12:21:32;21.30;95.80
27544;DHT22;17996;51.056;3.656;2023-06-04T12:24:12;21.30;93.90
27544;DHT22;17996;51.056;3.656;2023-06-04T12:26:39;21.30;94.50
27544;DHT22;17996;51.056;3.656;2023-06-04T12:29:16;21.40;96.30
27544;DHT22;17996;51.056;3.656;2023-06-04T12:31:43;21.40;96.40
27544;DHT22;17996;51.056;3.656;2023-06-04T12:34:11;21.40;96.30
27544;DHT22;17996;51.056;3.656;2023-06-04T12:36:37;21.40;96.30
27544;DHT22;17996;51.056;3.656;2023-06-04T12:39:04;21.50;96.80
27544;DHT22;17996;51.056;3.656;2023-06-04T12:41:31;21.50;96.80
27544;DHT22;17996;51.056;3.656;2023-06-04T12:43:57;21.60;96.80
27544;DHT22;17996;51.056;3.656;2023-06-04T12:46:23;21.60;96.60
27544;DHT22;17996;51.056;3.656;2023-06-04T12:48:53;21.60;97.20
27544;DHT22;17996;51.056;3.656;2023-06-04T12:51:20;21.70;96.60
27544;DHT22;17996;51.056;3.656;2023-06-04T12:53:47;21.70;97.10
27544;DHT22;17996;51.056;3.656;2023-06-04T12:56:14;21.80;96.70
27544;DHT22;17996;51.056;3.656;2023-06-04T12:58:40;21.80;96.90
27544;DHT22;17996;51.056;3.656;2023-06-04T13:01:05;21.80;96.80
27544;DHT22;17996;51.056;3.656;2023-06-04T13:03:31;21.80;96.50
27544;DHT22;17996;51.056;3.656;2023-06-04T13:05:57;21.80;96.00
27544;DHT22;17996;51.056;3.656;2023-06-04T13:08:23;21.80;96.40
27544;DHT22;17996;51.056;3.656;2023-06-04T13:10:52;21.80;96.80
27544;DHT22;17996;51.056;3.656;2023-06-04T13:13:19;21.90;95.20
27544;DHT22;17996;51.056;3.656;2023-06-04T13:15:45;21.90;96.00
27544;DHT22;17996;51.056;3.656;2023-06-04T13:18:11;21.90;96.20
27544;DHT22;17996;51.056;3.656;2023-06-04T13:20:39;22.10;95.80
27544;DHT22;17996;51.056;3.656;2023-06-04T13:23:05;22.00;94.80
27544;DHT22;17996;51.056;3.656;2023-06-04T13:25:31;22.10;96.40
27544;DHT22;17996;51.056;3.656;2023-06-04T13:27:59;22.10;96.50
27544;DHT22;17996;51.056;3.656;2023-06-04T13:30:25;22.20;96.10
27544;DHT22;17996;51.056;3.656;2023-06-04T13:32:50;22.30;96.30
27544;DHT22;17996;51.056;3.656;2023-06-04T13:35:16;22.30;96.00
27544;DHT22;17996;51.056;3.656;2023-06-04T13:37:42;22.30;95.40
27544;DHT22;17996;51.056;3.656;2023-06-04T13:40:08;22.40;94.90
27544;DHT22;17996;51.056;3.656;2023-06-04T13:42:34;22.40;95.80
27544;DHT22;17996;51.056;3.656;2023-06-04T13:44:59;22.40;95.90
27544;DHT22;17996;51.056;3.656;2023-06-04T13:47:25;22.50;96.00
27544;DHT22;17996;51.056;3.656;2023-06-04T13:49:51;22.60;96.30
27544;DHT22;17996;51.056;3.656;2023-06-04T13:52:17;22.50;95.30
27544;DHT22;17996;51.056;3.656;2023-06-04T13:54:43;22.60;95.60
27544;DHT22;17996;51.056;3.656;2023-06-04T13:57:09;22.70;96.20
27544;DHT22;17996;51.056;3.656;2023-06-04T13:59:38;22.70;96.10
27544;DHT22;17996;51.056;3.656;2023-06-04T14:02:04;22.80;94.90
27544;DHT22;17996;51.056;3.656;2023-06-04T14:04:30;22.90;95.00
27544;DHT22;17996;51.056;3.656;2023-06-04T14:06:56;22.90;95.50
27544;DHT22;17996;51.056;3.656;2023-06-04T14:09:21;23.00;95.10
27544;DHT22;17996;51.056;3.656;2023-06-04T14:11:47;23.00;94.30
27544;DHT22;17996;51.056;3.656;2023-06-04T14:14:19;23.20;95.40
27544;DHT22;17996;51.056;3.656;2023-06-04T14:16:45;23.20;94.80
27544;DHT22;17996;51.056;3.656;2023-06-04T14:19:11;23.30;94.50
27544;DHT22;17996;51.056;3.656;2023-06-04T14:21:37;23.40;94.70
27544;DHT22;17996;51.056;3.656;2023-06-04T14:24:03;23.40;95.40
27544;DHT22;17996;51.056;3.656;2023-06-04T14:26:28;23.70;95.90
27544;DHT22;17996;51.056;3.656;2023-06-04T14:28:55;23.80;95.70
27544;DHT22;17996;51.056;3.656;2023-06-04T14:31:20;23.90;95.40
27544;DHT22;17996;51.056;3.656;2023-06-04T14:33:46;24.00;94.80
27544;DHT22;17996;51.056;3.656;2023-06-04T14:36:11;24.10;93.80
27544;DHT22;17996;51.056;3.656;2023-06-04T14:38:37;24.20;93.90
27544;DHT22;17996;51.056;3.656;2023-06-04T14:41:03;24.20;92.90
27544;DHT22;17996;51.056;3.656;2023-06-04T14:43:29;24.30;93.70
27544;DHT22;17996;51.056;3.656;2023-06-04T14:45:54;24.40;94.10
27544;DHT22;17996;51.056;3.656;2023-06-04T14:48:20;24.50;94.30
27544;DHT22;17996;51.056;3.656;2023-06-04T14:50:46;24.70;93.60
27544;DHT22;17996;51.056;3.656;2023-06-04T14:53:12;24.70;92.70
27544;DHT22;17996;51.056;3.656;2023-06-04T14:55:38;24.80;92.90
27544;DHT22;17996;51.056;3.656;2023-06-04T14:58:04;25.00;93.20
27544;DHT22;17996;51.056;3.656;2023-06-04T15:00:30;25.20;93.10
27544;DHT22;17996;51.056;3.656;2023-06-04T15:02:57;25.30;95.30
27544;DHT22;17996;51.056;3.656;2023-06-04T15:05:22;25.40;96.10
27544;DHT22;17996;51.056;3.656;2023-06-04T15:07:48;25.30;96.40
27544;DHT22;17996;51.056;3.656;2023-06-04T15:10:14;25.40;96.80
27544;DHT22;17996;51.056;3.656;2023-06-04T15:12:39;25.40;96.80
27544;DHT22;17996;51.056;3.656;2023-06-04T15:15:07;25.50;97.10
27544;DHT22;17996;51.056;3.656;2023-06-04T15:17:34;25.50;97.20
27544;DHT22;17996;51.056;3.656;2023-06-04T15:20:00;25.40;95.30
27544;DHT22;17996;51.056;3.656;2023-06-04T15:22:25;25.30;96.30
27544;DHT22;17996;51.056;3.656;2023-06-04T15:24:52;25.30;96.70
27544;DHT22;17996;51.056;3.656;2023-06-04T15:27:18;25.40;97.80
27544;DHT22;17996;51.056;3.656;2023-06-04T15:29:44;25.50;97.90
27544;DHT22;17996;51.056;3.656;2023-06-04T15:32:10;25.50;98.50